sensor_id;sensor_type;location;lat;lon;timestamp;pressure;altitude;pressure_sealevel;temperature;humidity
42691;BME280;28306;55.744;37.578;2022-11-09T00:01:35;99673.56;;;22.30;29.43
42691;BME280;28306;55.744;37.578;2022-11-09T00:04:02;99680.22;;;22.39;29.48
42691;BME280;28306;55.744;37.578;2022-11-09T00:06:29;99664.59;;;22.29;29.44
42691;BME280;28306;55.744;37.578;2022-11-09T00:08:56;99678.00;;;22.36;29.42
42691;BME280;28306;55.744;37.578;2022-11-09T00:11:22;99671.69;;;22.30;29.50
42691;BME280;28306;55.744;37.578;2022-11-09T00:13:48;99673.06;;;22.33;29.35
42691;BME280;28306;55.744;37.578;2022-11-09T00:16:16;99687.03;;;22.42;29.33
42691;BME280;28306;55.744;37.578;2022-11-09T00:18:42;99672.50;;;22.31;29.31
42691;BME280;28306;55.744;37.578;2022-11-09T00:21:17;99687.03;;;22.42;29.25
42691;BME280;28306;55.744;37.578;2022-11-09T00:23:43;99691.63;;;22.41;29.39
42691;BME280;28306;55.744;37.578;2022-11-09T00:26:12;99678.25;;;22.35;29.42
42691;BME280;28306;55.744;37.578;2022-11-09T00:28:38;99689.75;;;22.42;29.45
42691;BME280;28306;55.744;37.578;2022-11-09T00:31:06;99692.22;;;22.43;29.40
42691;BME280;28306;55.744;37.578;2022-11-09T00:33:33;99689.50;;;22.43;29.40
42691;BME280;28306;55.744;37.578;2022-11-09T00:36:06;99693.59;;;22.46;29.33
42691;BME280;28306;55.744;37.578;2022-11-09T00:38:35;99694.25;;;22.53;29.13
42691;BME280;28306;55.744;37.578;2022-11-09T00:41:02;99686.22;;;22.41;29.33
42691;BME280;28306;55.744;37.578;2022-11-09T00:43:30;99694.69;;;22.45;29.27
42691;BME280;28306;55.744;37.578;2022-11-09T00:45:56;99697.03;;;22.41;29.32
42691;BME280;28306;55.744;37.578;2022-11-09T00:48:22;99686.38;;;22.35;29.39
42691;BME280;28306;55.744;37.578;2022-11-09T00:50:52;99704.13;;;22.42;29.28
42691;BME280;28306;55.744;37.578;2022-11-09T00:53:18;99709.31;;;22.44;29.45
42691;BME280;28306;55.744;37.578;2022-11-09T00:56:07;99700.09;;;22.45;29.34
42691;BME280;28306;55.744;37.578;2022-11-09T00:58:36;99708.50;;;22.43;29.48
42691;BME280;28306;55.744;37.578;2022-11-09T01:01:08;99705.78;;;22.43;29.39
42691;BME280;28306;55.744;37.578;2022-11-09T01:03:36;99698.47;;;22.44;29.12
42691;BME280;28306;55.744;37.578;2022-11-09T01:06:02;99700.91;;;22.45;29.38
42691;BME280;28306;55.744;37.578;2022-11-09T01:08:28;99700.09;;;22.45;29.49
42691;BME280;28306;55.744;37.578;2022-11-09T01:10:54;99682.75;;;22.29;29.32
42691;BME280;28306;55.744;37.578;2022-11-09T01:13:21;99700.66;;;22.47;29.18
42691;BME280;28306;55.744;37.578;2022-11-09T01:15:51;99706.34;;;22.45;29.31
42691;BME280;28306;55.744;37.578;2022-11-09T01:18:19;99703.31;;;22.42;29.35
42691;BME280;28306;55.744;37.578;2022-11-09T01:20:47;99702.47;;;22.41;29.33
42691;BME280;28306;55.744;37.578;2022-11-09T01:23:14;99697.88;;;22.42;29.40
42691;BME280;28306;55.744;37.578;2022-11-09T01:25:40;99712.00;;;22.44;29.43
42691;BME280;28306;55.744;37.578;2022-11-09T01:28:08;99701.41;;;22.42;29.45
42691;BME280;28306;55.744;37.578;2022-11-09T01:30:39;99698.47;;;22.44;29.41
42691;BME280;28306;55.744;37.578;2022-11-09T01:33:07;99717.75;;;22.47;29.36
42691;BME280;28306;55.744;37.578;2022-11-09T01:35:34;99706.91;;;22.47;29.45
42691;BME280;28306;55.744;37.578;2022-11-09T01:38:01;99694.59;;;22.40;29.35
42691;BME280;28306;55.744;37.578;2022-11-09T01:40:28;99707.50;;;22.49;29.31
42691;BME280;28306;55.744;37.578;2022-11-09T01:42:54;99705.59;;;22.50;29.29
42691;BME280;28306;55.744;37.578;2022-11-09T01:47:51;99705.03;;;22.48;29.33
42691;BME280;28306;55.744;37.578;2022-11-09T01:50:31;99715.63;;;22.49;29.45
42691;BME280;28306;55.744;37.578;2022-11-09T01:53:01;99707.50;;;22.49;29.24
42691;BME280;28306;55.744;37.578;2022-11-09T01:55:28;99703.13;;;22.48;29.50
42691;BME280;28306;55.744;37.578;2022-11-09T01:57:59;99724.34;;;22.52;29.39
42691;BME280;28306;55.744;37.578;2022-11-09T02:00:26;99712.69;;;22.51;29.39
42691;BME280;28306;55.744;37.578;2022-11-09T02:02:58;99722.69;;;22.50;29.33
42691;BME280;28306;55.744;37.578;2022-11-09T02:05:29;99716.19;;;22.52;29.35
42691;BME280;28306;55.744;37.578;2022-11-09T02:07:57;99711.59;;;22.52;29.43
42691;BME280;28306;55.744;37.578;2022-11-09T02:10:52;99715.88;;;22.48;29.37
42691;BME280;28306;55.744;37.578;2022-11-09T02:13:20;99724.50;;;22.62;29.29
42691;BME280;28306;55.744;37.578;2022-11-09T02:15:48;99726.31;;;22.56;29.30
42691;BME280;28306;55.744;37.578;2022-11-09T02:18:15;99718.84;;;22.46;29.29
42691;BME280;28306;55.744;37.578;2022-11-09T02:20:55;99730.56;;;22.52;29.28
42691;BME280;28306;55.744;37.578;2022-11-09T02:23:23;99712.00;;;22.44;29.31
42691;BME280;28306;55.744;37.578;2022-11-09T02:26:10;99721.06;;;22.49;29.26
42691;BME280;28306;55.744;37.578;2022-11-09T02:28:39;99738.22;;;22.55;29.35
42691;BME280;28306;55.744;37.578;2022-11-09T02:31:09;99726.78;;;22.53;29.38
42691;BME280;28306;55.744;37.578;2022-11-09T02:36:15;99742.25;;;22.53;29.41
42691;BME280;28306;55.744;37.578;2022-11-09T02:38:40;99732.72;;;22.50;29.32
42691;BME280;28306;55.744;37.578;2022-11-09T02:41:06;99735.19;;;22.52;29.49
42691;BME280;28306;55.744;37.578;2022-11-09T02:43:33;99745.22;;;22.51;29.49
42691;BME280;28306;55.744;37.578;2022-11-09T02:46:00;99732.22;;;22.53;29.41
42691;BME280;28306;55.744;37.578;2022-11-09T02:48:26;99733.88;;;22.54;29.38
42691;BME280;28306;55.744;37.578;2022-11-09T02:50:52;99729.75;;;22.52;29.35
42691;BME280;28306;55.744;37.578;2022-11-09T02:53:19;99732.78;;;22.55;29.26
42691;BME280;28306;55.744;37.578;2022-11-09T02:55:45;99742.63;;;22.61;29.12
42691;BME280;28306;55.744;37.578;2022-11-09T02:58:12;99734.00;;;22.64;29.11
42691;BME280;28306;55.744;37.578;2022-11-09T03:00:38;99736.97;;;22.63;29.24
42691;BME280;28306;55.744;37.578;2022-11-09T03:03:04;99731.47;;;22.58;29.33
42691;BME280;28306;55.744;37.578;2022-11-09T03:05:30;99732.78;;;22.55;29.21
42691;BME280;28306;55.744;37.578;2022-11-09T03:07:56;99726.00;;;22.53;29.24
42691;BME280;28306;55.744;37.578;2022-11-09T03:10:22;99750.53;;;22.63;29.23
42691;BME280;28306;55.744;37.578;2022-11-09T03:12:48;99742.88;;;22.60;29.21
42691;BME280;28306;55.744;37.578;2022-11-09T03:15:14;99741.03;;;22.60;29.17
42691;BME280;28306;55.744;37.578;2022-11-09T03:17:43;99744.22;;;22.57;29.32
42691;BME280;28306;55.744;37.578;2022-11-09T03:20:09;99749.41;;;22.59;29.33
42691;BME280;28306;55.744;37.578;2022-11-09T03:22:37;99743.97;;;22.59;29.46
42691;BME280;28306;55.744;37.578;2022-11-09T03:25:02;99741.41;;;22.52;29.43
42691;BME280;28306;55.744;37.578;2022-11-09T03:27:29;99760.81;;;22.61;29.35
42691;BME280;28306;55.744;37.578;2022-11-09T03:29:54;99749.72;;;22.62;29.33
42691;BME280;28306;55.744;37.578;2022-11-09T03:32:20;99761.38;;;22.63;29.30
42691;BME280;28306;55.744;37.578;2022-11-09T03:34:46;99758.91;;;22.61;29.32
42691;BME280;28306;55.744;37.578;2022-11-09T03:37:13;99752.34;;;22.57;29.43
42691;BME280;28306;55.744;37.578;2022-11-09T03:39:39;99760.81;;;22.61;29.37
42691;BME280;28306;55.744;37.578;2022-11-09T03:42:05;99765.41;;;22.60;29.29
42691;BME280;28306;55.744;37.578;2022-11-09T03:44:30;99764.59;;;22.60;29.31
42691;BME280;28306;55.744;37.578;2022-11-09T03:46:56;99771.66;;;22.61;29.39
42691;BME280;28306;55.744;37.578;2022-11-09T03:49:21;99764.81;;;22.58;29.30
42691;BME280;28306;55.744;37.578;2022-11-09T03:51:50;99755.22;;;22.50;29.33
42691;BME280;28306;55.744;37.578;2022-11-09T03:54:16;99774.06;;;22.57;29.50
42691;BME280;28306;55.744;37.578;2022-11-09T03:56:41;99771.09;;;22.59;29.50
42691;BME280;28306;55.744;37.578;2022-11-09T03:59:07;99771.66;;;22.61;29.42
42691;BME280;28306;55.744;37.578;2022-11-09T04:01:32;99776.28;;;22.60;29.38
42691;BME280;28306;55.744;37.578;2022-11-09T04:03:58;99770.00;;;22.60;29.33
42691;BME280;28306;55.744;37.578;2022-11-09T04:06:24;99766.81;;;22.63;29.40
42691;BME280;28306;55.744;37.578;2022-11-09T04:08:50;99774.44;;;22.66;29.51
42691;BME280;28306;55.744;37.578;2022-11-09T04:11:17;99774.19;;;22.67;29.31
42691;BME280;28306;55.744;37.578;2022-11-09T04:13:43;99772.31;;;22.68;29.31
42691;BME280;28306;55.744;37.578;2022-11-09T04:16:09;99771.72;;;22.66;29.37
42691;BME280;28306;55.744;37.578;2022-11-09T04:18:34;99745.09;;;22.46;29.45
42691;BME280;28306;55.744;37.578;2022-11-09T04:21:00;99773.88;;;22.64;29.37
42691;BME280;28306;55.744;37.578;2022-11-09T04:23:25;99755.22;;;22.50;29.43
42691;BME280;28306;55.744;37.578;2022-11-09T04:25:51;99767.78;;;22.57;29.45
42691;BME280;28306;55.744;37.578;2022-11-09T04:28:17;99775.78;;;22.63;29.37
42691;BME280;28306;55.744;37.578;2022-11-09T04:30:43;99765.06;;;22.57;29.33
42691;BME280;28306;55.744;37.578;2022-11-09T04:33:08;99769.75;;;22.61;29.35
42691;BME280;28306;55.744;37.578;2022-11-09T04:35:34;99768.03;;;22.55;29.45
42691;BME280;28306;55.744;37.578;2022-11-09T04:38:03;99768.88;;;22.56;29.45
42691;BME280;28306;55.744;37.578;2022-11-09T04:40:31;99775.19;;;22.61;29.42
42691;BME280;28306;55.744;37.578;2022-11-09T04:43:01;99774.13;;;22.62;29.46
42691;BME280;28306;55.744;37.578;2022-11-09T04:45:27;99782.50;;;22.61;29.39
42691;BME280;28306;55.744;37.578;2022-11-09T04:48:05;99781.19;;;22.63;29.44
42691;BME280;28306;55.744;37.578;2022-11-09T04:50:31;99774.88;;;22.58;29.48
42691;BME280;28306;55.744;37.578;2022-11-09T04:53:12;99789.09;;;22.65;29.54
42691;BME280;28306;55.744;37.578;2022-11-09T04:55:40;99787.44;;;22.64;29.50
42691;BME280;28306;55.744;37.578;2022-11-09T04:58:06;99798.28;;;22.64;29.41
42691;BME280;28306;55.744;37.578;2022-11-09T05:00:32;99791.22;;;22.63;29.51
42691;BME280;28306;55.744;37.578;2022-11-09T05:02:59;99785.03;;;22.50;29.52
42691;BME280;28306;55.744;37.578;2022-11-09T05:05:26;99798.78;;;22.61;29.56
42691;BME280;28306;55.744;37.578;2022-11-09T05:07:51;99795.00;;;22.62;29.50
42691;BME280;28306;55.744;37.578;2022-11-09T05:10:17;99787.84;;;22.56;29.28
42691;BME280;28306;55.744;37.578;2022-11-09T05:12:42;99796.38;;;22.64;29.39
42691;BME280;28306;55.744;37.578;2022-11-09T05:15:08;99801.00;;;22.64;29.50
42691;BME280;28306;55.744;37.578;2022-11-09T05:17:34;99805.38;;;22.65;29.29
42691;BME280;28306;55.744;37.578;2022-11-09T05:20:00;99773.06;;;22.46;29.52
42691;BME280;28306;55.744;37.578;2022-11-09T05:22:25;99799.59;;;22.61;29.73
42691;BME280;28306;55.744;37.578;2022-11-09T05:25:09;99804.88;;;22.68;29.51
42691;BME280;28306;55.744;37.578;2022-11-09T05:27:38;99807.84;;;22.66;29.55
42691;BME280;28306;55.744;37.578;2022-11-09T05:30:04;99805.13;;;22.66;29.51
42691;BME280;28306;55.744;37.578;2022-11-09T05:32:29;99808.63;;;22.67;29.49
42691;BME280;28306;55.744;37.578;2022-11-09T05:34:55;99808.63;;;22.67;29.49
42691;BME280;28306;55.744;37.578;2022-11-09T05:37:21;99798.78;;;22.61;29.53
42691;BME280;28306;55.744;37.578;2022-11-09T05:39:47;99798.22;;;22.59;29.34
42691;BME280;28306;55.744;37.578;2022-11-09T05:42:13;99801.31;;;22.67;29.79
42691;BME280;28306;55.744;37.578;2022-11-09T05:44:38;99794.16;;;22.61;29.59
42691;BME280;28306;55.744;37.578;2022-11-09T05:47:04;99821.72;;;22.70;29.56
42691;BME280;28306;55.744;37.578;2022-11-09T05:49:29;99815.47;;;22.70;29.60
42691;BME280;28306;55.744;37.578;2022-11-09T05:51:55;99809.81;;;22.71;29.46
42691;BME280;28306;55.744;37.578;2022-11-09T05:54:21;99812.25;;;22.73;29.42
42691;BME280;28306;55.744;37.578;2022-11-09T05:56:46;99800.00;;;22.70;29.44
42691;BME280;28306;55.744;37.578;2022-11-09T05:59:12;99807.41;;;22.75;29.35
42691;BME280;28306;55.744;37.578;2022-11-09T06:01:37;99815.31;;;22.76;29.32
42691;BME280;28306;55.744;37.578;2022-11-09T06:04:03;99811.75;;;22.76;29.47
42691;BME280;28306;55.744;37.578;2022-11-09T06:06:29;99811.25;;;22.79;29.50
42691;BME280;28306;55.744;37.578;2022-11-09T06:08:54;99783.31;;;22.61;29.45
42691;BME280;28306;55.744;37.578;2022-11-09T06:11:20;99807.66;;;22.73;29.40
42691;BME280;28306;55.744;37.578;2022-11-09T06:13:46;99813.09;;;22.73;29.56
42691;BME280;28306;55.744;37.578;2022-11-09T06:16:11;99827.28;;;22.80;29.44
42691;BME280;28306;55.744;37.578;2022-11-09T06:18:37;99819.31;;;22.74;29.44
42691;BME280;28306;55.744;37.578;2022-11-09T06:21:03;99828.88;;;22.76;29.23
42691;BME280;28306;55.744;37.578;2022-11-09T06:23:30;99834.38;;;22.81;29.42
42691;BME280;28306;55.744;37.578;2022-11-09T06:25:57;99827.88;;;22.82;29.39
42691;BME280;28306;55.744;37.578;2022-11-09T06:28:24;99840.34;;;22.83;29.38
42691;BME280;28306;55.744;37.578;2022-11-09T06:30:50;99819.63;;;22.77;29.38
42691;BME280;28306;55.744;37.578;2022-11-09T06:33:15;99833.38;;;22.88;29.22
42691;BME280;28306;55.744;37.578;2022-11-09T06:35:41;99831.47;;;22.88;29.59
42691;BME280;28306;55.744;37.578;2022-11-09T06:38:09;99842.31;;;22.88;29.36
42691;BME280;28306;55.744;37.578;2022-11-09T06:40:36;99844.22;;;22.88;29.45
42691;BME280;28306;55.744;37.578;2022-11-09T06:43:02;99837.75;;;22.89;29.35
42691;BME280;28306;55.744;37.578;2022-11-09T06:45:29;99841.50;;;22.88;29.35
42691;BME280;28306;55.744;37.578;2022-11-09T06:48:00;99836.91;;;22.88;29.39
42691;BME280;28306;55.744;37.578;2022-11-09T06:50:27;99842.31;;;22.88;29.24
42691;BME280;28306;55.744;37.578;2022-11-09T06:53:14;99841.28;;;22.89;29.31
42691;BME280;28306;55.744;37.578;2022-11-09T06:55:40;99846.44;;;22.91;29.33
42691;BME280;28306;55.744;37.578;2022-11-09T06:58:13;99845.38;;;22.92;29.30
42691;BME280;28306;55.744;37.578;2022-11-09T07:00:41;99848.84;;;22.87;29.31
42691;BME280;28306;55.744;37.578;2022-11-09T07:03:07;99819.75;;;22.65;29.45
42691;BME280;28306;55.744;37.578;2022-11-09T07:05:37;99859.19;;;22.90;29.45
42691;BME280;28306;55.744;37.578;2022-11-09T07:08:03;99858.59;;;22.88;29.42
42691;BME280;28306;55.744;37.578;2022-11-09T07:10:28;99871.09;;;22.89;29.33
42691;BME280;28306;55.744;37.578;2022-11-09T07:12:57;99861.31;;;22.88;29.37
42691;BME280;28306;55.744;37.578;2022-11-09T07:15:23;99864.28;;;22.86;29.40
42691;BME280;28306;55.744;37.578;2022-11-09T07:17:49;99864.53;;;22.85;29.12
42691;BME280;28306;55.744;37.578;2022-11-09T07:20:14;99868.97;;;22.91;29.41
42691;BME280;28306;55.744;37.578;2022-11-09T07:22:40;99870.78;;;22.85;29.16
42691;BME280;28306;55.744;37.578;2022-11-09T07:25:08;99884.44;;;22.91;29.58
42691;BME280;28306;55.744;37.578;2022-11-09T07:27:34;99884.44;;;22.91;29.44
42691;BME280;28306;55.744;37.578;2022-11-09T07:30:00;99881.63;;;22.85;29.46
42691;BME280;28306;55.744;37.578;2022-11-09T07:32:26;99888.31;;;22.95;29.45
42691;BME280;28306;55.744;37.578;2022-11-09T07:34:52;99875.31;;;22.97;29.46
42691;BME280;28306;55.744;37.578;2022-11-09T07:37:17;99884.25;;;22.97;29.28
42691;BME280;28306;55.744;37.578;2022-11-09T07:39:43;99868.97;;;22.91;29.21
42691;BME280;28306;55.744;37.578;2022-11-09T07:42:08;99873.34;;;22.92;29.25
42691;BME280;28306;55.744;37.578;2022-11-09T07:44:39;99882.38;;;22.98;29.28
42691;BME280;28306;55.744;37.578;2022-11-09T07:47:04;99885.09;;;22.98;29.28
42691;BME280;28306;55.744;37.578;2022-11-09T07:49:30;99888.31;;;22.95;29.56
42691;BME280;28306;55.744;37.578;2022-11-09T07:51:56;99889.69;;;22.97;29.46
42691;BME280;28306;55.744;37.578;2022-11-09T07:54:22;99896.69;;;22.93;29.43
42691;BME280;28306;55.744;37.578;2022-11-09T07:56:47;99894.31;;;22.97;29.46
42691;BME280;28306;55.744;37.578;2022-11-09T07:59:13;99888.31;;;22.95;29.48
42691;BME280;28306;55.744;37.578;2022-11-09T08:01:38;99894.88;;;22.99;29.50
42691;BME280;28306;55.744;37.578;2022-11-09T08:04:04;99905.97;;;22.97;29.45
42691;BME280;28306;55.744;37.578;2022-11-09T08:06:30;99899.72;;;22.97;29.53
42691;BME280;28306;55.744;37.578;2022-11-09T08:08:56;99899.72;;;22.97;29.68
42691;BME280;28306;55.744;37.578;2022-11-09T08:11:22;99904.59;;;22.95;29.35
42691;BME280;28306;55.744;37.578;2022-11-09T08:13:48;99902.44;;;22.97;29.47
42691;BME280;28306;55.744;37.578;2022-11-09T08:16:14;99908.94;;;22.96;29.64
42691;BME280;28306;55.744;37.578;2022-11-09T08:18:40;99893.72;;;22.95;29.62
42691;BME280;28306;55.744;37.578;2022-11-09T08:21:05;99898.06;;;22.96;29.63
42691;BME280;28306;55.744;37.578;2022-11-09T08:23:31;99899.97;;;22.95;29.71
42691;BME280;28306;55.744;37.578;2022-11-09T08:26:01;99901.88;;;22.95;29.79
42691;BME280;28306;55.744;37.578;2022-11-09T08:28:27;99896.75;;;22.98;29.70
42691;BME280;28306;55.744;37.578;2022-11-09T08:30:55;99884.69;;;22.89;29.69
42691;BME280;28306;55.744;37.578;2022-11-09T08:33:21;99892.06;;;22.94;29.85
42691;BME280;28306;55.744;37.578;2022-11-09T08:35:47;99888.13;;;22.84;29.72
42691;BME280;28306;55.744;37.578;2022-11-09T08:38:13;99897.59;;;22.99;29.72
42691;BME280;28306;55.744;37.578;2022-11-09T08:40:38;99888.81;;;22.92;29.77
42691;BME280;28306;55.744;37.578;2022-11-09T08:43:06;99879.25;;;22.89;29.76
42691;BME280;28306;55.744;37.578;2022-11-09T08:45:34;99896.28;;;23.01;29.83
42691;BME280;28306;55.744;37.578;2022-11-09T08:48:00;99894.97;;;23.04;29.86
42691;BME280;28306;55.744;37.578;2022-11-09T08:50:28;99891.97;;;23.06;29.86
42691;BME280;28306;55.744;37.578;2022-11-09T08:52:54;99876.38;;;22.96;29.68
42691;BME280;28306;55.744;37.578;2022-11-09T08:55:20;99888.44;;;23.05;29.94
42691;BME280;28306;55.744;37.578;2022-11-09T08:57:46;99890.72;;;23.08;29.96
42691;BME280;28306;55.744;37.578;2022-11-09T09:00:12;99887.41;;;23.06;29.90
42691;BME280;28306;55.744;37.578;2022-11-09T09:02:38;99893.63;;;23.07;30.05
42691;BME280;28306;55.744;37.578;2022-11-09T09:05:04;99890.13;;;23.06;29.90
42691;BME280;28306;55.744;37.578;2022-11-09T09:07:29;99892.34;;;23.09;29.98
42691;BME280;28306;55.744;37.578;2022-11-09T09:09:55;99872.09;;;23.00;30.04
42691;BME280;28306;55.744;37.578;2022-11-09T09:12:21;99888.00;;;23.08;29.98
42691;BME280;28306;55.744;37.578;2022-11-09T09:14:46;99891.53;;;23.09;30.06
42691;BME280;28306;55.744;37.578;2022-11-09T09:17:12;99881.66;;;23.02;30.00
42691;BME280;28306;55.744;37.578;2022-11-09T09:19:38;99860.25;;;22.89;30.07
42691;BME280;28306;55.744;37.578;2022-11-09T09:22:03;99890.03;;;23.01;30.02
42691;BME280;28306;55.744;37.578;2022-11-09T09:24:29;99897.16;;;23.07;30.07
42691;BME280;28306;55.744;37.578;2022-11-09T09:26:55;99892.81;;;23.06;30.19
42691;BME280;28306;55.744;37.578;2022-11-09T09:29:21;99889.28;;;23.06;30.06
42691;BME280;28306;55.744;37.578;2022-11-09T09:31:46;99890.72;;;23.08;30.20
42691;BME280;28306;55.744;37.578;2022-11-09T09:34:12;99884.13;;;23.04;30.12
42691;BME280;28306;55.744;37.578;2022-11-09T09:36:38;99884.59;;;23.01;30.29
42691;BME280;28306;55.744;37.578;2022-11-09T09:39:04;99884.94;;;23.04;30.25
42691;BME280;28306;55.744;37.578;2022-11-09T09:41:40;99884.69;;;23.06;30.35
42691;BME280;28306;55.744;37.578;2022-11-09T09:44:26;99859.69;;;22.87;30.20
42691;BME280;28306;55.744;37.578;2022-11-09T09:46:56;99894.69;;;23.06;30.33
42691;BME280;28306;55.744;37.578;2022-11-09T09:49:26;99875.88;;;22.99;30.22
42691;BME280;28306;55.744;37.578;2022-11-09T09:54:42;99883.38;;;23.09;30.26
42691;BME280;28306;55.744;37.578;2022-11-09T09:57:19;99854.66;;;22.96;30.29
42691;BME280;28306;55.744;37.578;2022-11-09T09:59:52;99879.66;;;23.15;30.33
42691;BME280;28306;55.744;37.578;2022-11-09T10:04:44;99873.50;;;23.19;30.23
42691;BME280;28306;55.744;37.578;2022-11-09T10:12:55;99873.19;;;23.16;30.30
42691;BME280;28306;55.744;37.578;2022-11-09T10:15:26;99882.75;;;23.18;30.29
42691;BME280;28306;55.744;37.578;2022-11-09T10:18:00;99887.56;;;23.16;30.43
42691;BME280;28306;55.744;37.578;2022-11-09T10:21:03;99889.47;;;23.16;30.28
42691;BME280;28306;55.744;37.578;2022-11-09T10:23:42;99889.47;;;23.16;30.23
42691;BME280;28306;55.744;37.578;2022-11-09T10:26:18;99886.75;;;23.16;30.37
42691;BME280;28306;55.744;37.578;2022-11-09T10:28:47;99882.81;;;23.24;30.09
42691;BME280;28306;55.744;37.578;2022-11-09T10:31:18;99872.53;;;23.09;30.34
42691;BME280;28306;55.744;37.578;2022-11-09T10:33:52;99880.16;;;23.12;30.27
42691;BME280;28306;55.744;37.578;2022-11-09T10:36:26;99879.34;;;23.11;30.10
42691;BME280;28306;55.744;37.578;2022-11-09T10:38:57;99883.72;;;23.12;30.38
42691;BME280;28306;55.744;37.578;2022-11-09T10:41:44;99890.22;;;23.11;30.58
42691;BME280;28306;55.744;37.578;2022-11-09T10:44:29;99890.22;;;23.11;30.47
42691;BME280;28306;55.744;37.578;2022-11-09T10:47:17;99886.44;;;23.12;30.50
42691;BME280;28306;55.744;37.578;2022-11-09T10:50:21;99889.72;;;23.14;30.44
42691;BME280;28306;55.744;37.578;2022-11-09T10:53:23;99888.31;;;23.12;30.58
42691;BME280;28306;55.744;37.578;2022-11-09T10:56:19;99887.00;;;23.14;30.38
42691;BME280;28306;55.744;37.578;2022-11-09T11:00:12;99888.66;;;23.15;30.38
42691;BME280;28306;55.744;37.578;2022-11-09T11:08:18;99880.66;;;23.09;30.69
42691;BME280;28306;55.744;37.578;2022-11-09T11:11:29;99890.88;;;23.18;30.51
42691;BME280;28306;55.744;37.578;2022-11-09T11:17:23;99886.25;;;23.19;30.47
42691;BME280;28306;55.744;37.578;2022-11-09T11:20:26;99889.78;;;23.19;30.49
42691;BME280;28306;55.744;37.578;2022-11-09T11:23:16;99895.22;;;23.19;30.31
42691;BME280;28306;55.744;37.578;2022-11-09T11:32:14;99887.56;;;23.16;30.56
42691;BME280;28306;55.744;37.578;2022-11-09T11:34:59;99882.38;;;23.15;30.66
42691;BME280;28306;55.744;37.578;2022-11-09T11:41:04;99881.34;;;23.16;30.37
42691;BME280;28306;55.744;37.578;2022-11-09T11:44:02;99887.81;;;23.15;30.59
42691;BME280;28306;55.744;37.578;2022-11-09T11:49:57;99885.34;;;23.13;30.60
42691;BME280;28306;55.744;37.578;2022-11-09T11:53:00;99878.06;;;23.14;30.63
42691;BME280;28306;55.744;37.578;2022-11-09T12:02:23;99881.00;;;23.12;30.55
42691;BME280;28306;55.744;37.578;2022-11-09T12:05:24;99878.38;;;23.17;30.85
42691;BME280;28306;55.744;37.578;2022-11-09T12:17:41;99876.72;;;23.16;30.67
42691;BME280;28306;55.744;37.578;2022-11-09T12:20:40;99883.78;;;23.17;30.72
42691;BME280;28306;55.744;37.578;2022-11-09T12:29:28;99876.63;;;23.11;30.88
42691;BME280;28306;55.744;37.578;2022-11-09T12:35:30;99875.72;;;23.23;30.83
42691;BME280;28306;55.744;37.578;2022-11-09T12:38:20;99887.31;;;23.18;30.68
42691;BME280;28306;55.744;37.578;2022-11-09T12:41:16;99878.63;;;23.16;30.79
42691;BME280;28306;55.744;37.578;2022-11-09T12:44:16;99880.84;;;23.19;30.82
42691;BME280;28306;55.744;37.578;2022-11-09T12:47:06;99873.13;;;23.11;30.80
42691;BME280;28306;55.744;37.578;2022-11-09T12:49:53;99875.59;;;23.12;30.91
42691;BME280;28306;55.744;37.578;2022-11-09T12:52:39;99889.72;;;23.14;30.85
42691;BME280;28306;55.744;37.578;2022-11-09T12:55:43;99891.88;;;23.12;30.88
42691;BME280;28306;55.744;37.578;2022-11-09T12:58:31;99891.38;;;23.15;30.79
42691;BME280;28306;55.744;37.578;2022-11-09T13:04:16;99893.59;;;23.18;30.73
42691;BME280;28306;55.744;37.578;2022-11-09T13:09:53;99898.19;;;23.18;30.78
42691;BME280;28306;55.744;37.578;2022-11-09T13:12:39;99903.84;;;23.16;30.74
42691;BME280;28306;55.744;37.578;2022-11-09T13:15:27;99900.91;;;23.18;30.78
42691;BME280;28306;55.744;37.578;2022-11-09T13:18:26;99903.53;;;23.13;30.98
42691;BME280;28306;55.744;37.578;2022-11-09T13:35:58;99919.41;;;23.21;30.85
42691;BME280;28306;55.744;37.578;2022-11-09T13:38:43;99922.13;;;23.21;30.83
42691;BME280;28306;55.744;37.578;2022-11-09T13:44:23;99908.53;;;23.21;30.82
42691;BME280;28306;55.744;37.578;2022-11-09T13:47:20;99918.09;;;23.24;30.83
42691;BME280;28306;55.744;37.578;2022-11-09T13:50:17;99913.97;;;23.21;30.96
42691;BME280;28306;55.744;37.578;2022-11-09T13:53:02;99913.22;;;23.09;30.86
42691;BME280;28306;55.744;37.578;2022-11-09T13:55:46;99929.94;;;23.17;30.96
42691;BME280;28306;55.744;37.578;2022-11-09T13:58:35;99925.81;;;23.15;30.91
42691;BME280;28306;55.744;37.578;2022-11-09T14:04:34;99924.50;;;23.17;30.79
42691;BME280;28306;55.744;37.578;2022-11-09T14:07:25;99936.66;;;23.15;31.05
42691;BME280;28306;55.744;37.578;2022-11-09T14:16:27;99928.78;;;23.13;31.07
42691;BME280;28306;55.744;37.578;2022-11-09T14:22:13;99924.44;;;23.12;31.19
42691;BME280;28306;55.744;37.578;2022-11-09T14:25:03;99923.59;;;23.12;30.96
42691;BME280;28306;55.744;37.578;2022-11-09T14:27:53;99915.69;;;23.10;30.99
42691;BME280;28306;55.744;37.578;2022-11-09T14:30:43;99911.13;;;23.11;31.08
42691;BME280;28306;55.744;37.578;2022-11-09T14:33:30;99905.94;;;23.09;31.00
42691;BME280;28306;55.744;37.578;2022-11-09T14:36:17;99896.34;;;23.07;31.04
42691;BME280;28306;55.744;37.578;2022-11-09T14:39:21;99894.81;;;23.11;30.94
42691;BME280;28306;55.744;37.578;2022-11-09T14:42:07;99907.97;;;23.19;30.90
42691;BME280;28306;55.744;37.578;2022-11-09T14:44:51;99910.94;;;23.17;31.97
42691;BME280;28306;55.744;37.578;2022-11-09T14:47:37;99917.19;;;23.18;32.06
42691;BME280;28306;55.744;37.578;2022-11-09T14:50:26;99916.94;;;23.19;31.77
42691;BME280;28306;55.744;37.578;2022-11-09T14:53:15;99921.31;;;23.20;31.65
42691;BME280;28306;55.744;37.578;2022-11-09T14:56:06;99917.19;;;23.18;31.61